Glidden, IA

9:44 AM CST on February 24, 2017 (GMT -0600)
Neu

Weather History for KCIN - January, 2013

Change the Weather History Date:

Thursday, January 24, 2013

  Actual Average Record
Temperature  
Mean Temperature 10 °F -  
Max Temperature 19 °F 30 °F 63 °F (1981)
Min Temperature 0 °F 12 °F -16 °F (1961)
Degree Days  
Heating Degree Days 56    
Moisture  
Dew Point -5 °F    
Average Humidity 55    
Maximum Humidity 66    
Minimum Humidity 41    
Precipitation  
Precipitation 0.00 in - - ()
Sea Level Pressure  
Sea Level Pressure 30.40 in    
Wind  
Wind Speed 13 mph (ESE)    
Max Wind Speed 21 mph    
Max Gust Speed 24 mph    
Visibility 10 miles    
Events      
Averages and records for this station are not official NWS values.
T = Trace of Precipitation, MM = Missing Value Source: NWS Daily Summary

Daily Weather History Graph

Daily Weather History Graph

Search for Another Location

Airport or City:

Trip Planner

Search our weather history database for the weather conditions in past years. The results will help you decide how hot, cold, wet, or windy it might be!

Date:

Astronomy

Jan. 24, 2013 Rise Set
Actual Time 7:39 AM CST 5:24 PM CST
Civil Twilight 7:08 AM CST 5:54 PM CST
Nautical Twilight 6:34 AM CST 6:28 PM CST
Astronomical Twilight 6:01 AM CST 7:01 PM CST
Moon 3:26 PM CST 5:37 AM CST
Length of Visible Light 10h 45m
Length of Day
9h 45m
Waxing Gibbous, 94% of the Moon is Illuminated
Jan 24
Waxing Gibbous
Jan 26
Full
Feb 3
Last Quarter
Feb 10
New
Feb 17
First Quarter

Hourly Weather History & Observations

Time (CST) Temp. Windchill Dew Point Humidity Pressure Visibility Wind Dir Wind Speed Gust Speed Precip Events Conditions
12:15 AM 1.4 °F -18.2 °F -9.4 °F 61% 30.52 in 10.0 mi North 16.1 mph - N/A   Clear
12:35 AM 1.4 °F -14.5 °F -9.4 °F 61% 30.53 in 10.0 mi NNE 10.4 mph 17.3 mph N/A   Clear
12:55 AM 1.4 °F -18.8 °F -11.2 °F 56% 30.53 in 10.0 mi NNE 17.3 mph - N/A   Clear
1:15 AM -0.4 °F -19.2 °F -11.2 °F 60% 30.54 in 10.0 mi NNE 13.8 mph 20.7 mph N/A   Clear
1:35 AM -0.4 °F -19.2 °F -11.2 °F 60% 30.54 in 10.0 mi NNE 13.8 mph - N/A   Clear
1:55 AM -0.4 °F -17.6 °F -11.2 °F 60% 30.54 in 10.0 mi NNE 11.5 mph - N/A   Clear
2:15 AM -0.4 °F -16.7 °F -9.4 °F 66% 30.55 in 10.0 mi NNE 10.4 mph - N/A   Clear
2:35 AM -0.4 °F -16.7 °F -9.4 °F 66% 30.55 in 10.0 mi NNE 10.4 mph - N/A   Clear
2:55 AM -0.4 °F -15.7 °F -9.4 °F 66% 30.56 in 10.0 mi NNE 9.2 mph - N/A   Clear
3:15 AM -0.4 °F -16.7 °F -11.2 °F 60% 30.56 in 10.0 mi NE 10.4 mph - N/A   Clear
3:35 AM -0.4 °F -15.7 °F -9.4 °F 66% 30.57 in 10.0 mi North 9.2 mph - N/A   Clear
3:55 AM -0.4 °F -14.7 °F -9.4 °F 66% 30.57 in 10.0 mi NNE 8.1 mph - N/A   Clear
4:15 AM -0.4 °F -16.7 °F -9.4 °F 66% 30.56 in 10.0 mi NNE 10.4 mph - N/A   Clear
4:35 AM -0.4 °F -17.6 °F -9.4 °F 66% 30.55 in 10.0 mi NNE 11.5 mph - N/A   Clear
4:55 AM -0.4 °F -17.6 °F -9.4 °F 66% 30.54 in 10.0 mi NE 11.5 mph - N/A   Clear
5:15 AM -0.4 °F -16.7 °F -9.4 °F 66% 30.53 in 10.0 mi NE 10.4 mph - N/A   Clear
5:35 AM -0.4 °F -15.7 °F -9.4 °F 66% 30.55 in 10.0 mi NNE 9.2 mph - N/A   Clear
5:55 AM -0.4 °F -15.7 °F -9.4 °F 66% 30.54 in 10.0 mi NE 9.2 mph - N/A   Clear
6:15 AM -0.4 °F -17.6 °F -9.4 °F 66% 30.53 in 10.0 mi ENE 11.5 mph - N/A   Clear
6:35 AM -0.4 °F -16.7 °F -9.4 °F 66% 30.53 in 10.0 mi ENE 10.4 mph - N/A   Clear
6:55 AM -0.4 °F -15.7 °F -9.4 °F 66% 30.54 in 10.0 mi NE 9.2 mph - N/A   Clear
7:15 AM -0.4 °F -15.7 °F -9.4 °F 66% 30.55 in 10.0 mi NE 9.2 mph - N/A   Clear
7:35 AM -0.4 °F -12.0 °F -9.4 °F 66% 30.56 in 10.0 mi ENE 5.8 mph - N/A   Clear
7:55 AM 1.4 °F -13.5 °F -7.6 °F 66% 30.55 in 10.0 mi ENE 9.2 mph - N/A   Clear
8:15 AM 1.4 °F -13.5 °F -7.6 °F 66% 30.54 in 10.0 mi East 9.2 mph - N/A   Clear
8:35 AM 1.4 °F -15.3 °F -7.6 °F 66% 30.55 in 10.0 mi East 11.5 mph - N/A   Clear
8:55 AM 3.2 °F -13.9 °F -7.6 °F 61% 30.54 in 10.0 mi East 12.7 mph - N/A   Clear
9:15 AM 3.2 °F -15.3 °F -7.6 °F 61% 30.53 in 10.0 mi ESE 15.0 mph - N/A   Clear
9:35 AM 3.2 °F -14.6 °F -7.6 °F 61% 30.53 in 10.0 mi ESE 13.8 mph - N/A   Clear
9:55 AM 5.0 °F -13.0 °F -7.6 °F 56% 30.52 in 10.0 mi SE 15.0 mph - N/A   Clear
10:15 AM 5.0 °F -12.3 °F -5.8 °F 61% 30.52 in 10.0 mi SE 13.8 mph - N/A   Clear
10:35 AM 5.0 °F -13.6 °F -5.8 °F 61% 30.52 in 10.0 mi SE 16.1 mph - N/A   Clear
10:55 AM 6.8 °F -11.3 °F -5.8 °F 56% 30.51 in 10.0 mi ESE 16.1 mph - N/A   Clear
11:15 AM 6.8 °F -10.0 °F -5.8 °F 56% 30.50 in 10.0 mi SE 13.8 mph - N/A   Clear
11:35 AM 8.6 °F -8.9 °F -4.0 °F 57% 30.49 in 10.0 mi SE 16.1 mph - N/A   Clear
11:55 AM 8.6 °F -8.9 °F -4.0 °F 57% 30.46 in 10.0 mi SE 16.1 mph 23.0 mph N/A   Clear
12:15 PM 10.4 °F -6.6 °F -2.2 °F 57% 30.44 in 10.0 mi SE 16.1 mph - N/A   Clear
12:35 PM 10.4 °F -5.4 °F -4.0 °F 52% 30.44 in 10.0 mi SE 13.8 mph 20.7 mph N/A   Clear
12:55 PM 12.2 °F -3.1 °F -2.2 °F 53% 30.43 in 10.0 mi SE 13.8 mph 24.2 mph N/A   Clear
1:15 PM 12.2 °F -3.1 °F -4.0 °F 48% 30.41 in 10.0 mi SSE 13.8 mph 21.9 mph N/A   Clear
1:35 PM 12.2 °F -3.1 °F -4.0 °F 48% 30.38 in 10.0 mi SSE 13.8 mph 19.6 mph N/A   Clear
1:55 PM 14.0 °F -0.8 °F -4.0 °F 45% 30.37 in 10.0 mi SE 13.8 mph 19.6 mph N/A   Clear
2:15 PM 14.0 °F -0.2 °F -4.0 °F 45% 30.36 in 10.0 mi SE 12.7 mph 18.4 mph N/A   Clear
2:35 PM 14.0 °F 0.5 °F -4.0 °F 45% 30.35 in 10.0 mi SE 11.5 mph 17.3 mph N/A   Clear
2:55 PM 14.0 °F -1.4 °F -4.0 °F 45% 30.33 in 10.0 mi SE 15.0 mph - N/A   Clear
3:15 PM 15.8 °F 0.9 °F -2.2 °F 45% 30.32 in 10.0 mi SE 15.0 mph - N/A   Clear
3:35 PM 15.8 °F 0.9 °F -2.2 °F 45% 30.30 in 10.0 mi SE 15.0 mph - N/A   Clear
3:55 PM 15.8 °F 0.9 °F -4.0 °F 41% 30.29 in 10.0 mi SE 15.0 mph - N/A   Clear
4:15 PM 15.8 °F 0.9 °F -2.2 °F 45% 30.28 in 10.0 mi SE 15.0 mph - N/A   Clear
4:35 PM 15.8 °F 2.1 °F -2.2 °F 45% 30.27 in 10.0 mi SE 12.7 mph 20.7 mph N/A   Clear
4:55 PM 15.8 °F 1.4 °F -2.2 °F 45% 30.26 in 10.0 mi SE 13.8 mph - N/A   Partly Cloudy
5:35 PM 15.8 °F 0.3 °F -2.2 °F 45% 30.25 in 10.0 mi SE 16.1 mph - N/A   Overcast
5:55 PM 15.8 °F 1.4 °F -2.2 °F 45% 30.24 in 10.0 mi SE 13.8 mph - N/A   Overcast
6:15 PM 15.8 °F 0.9 °F -0.4 °F 49% 30.23 in 10.0 mi SSE 15.0 mph - N/A   Overcast
6:35 PM 15.8 °F 1.4 °F -0.4 °F 49% 30.21 in 10.0 mi SE 13.8 mph - N/A   Overcast
6:55 PM 17.6 °F 2.2 °F -2.2 °F 42% 30.20 in 10.0 mi SSE 17.3 mph - N/A   Overcast
7:15 PM 17.6 °F 3.7 °F -2.2 °F 42% 30.22 in 10.0 mi SSE 13.8 mph 20.7 mph N/A   Overcast
7:35 PM 17.6 °F 1.7 °F -0.4 °F 45% 30.20 in 10.0 mi SSE 18.4 mph - N/A   Overcast
7:55 PM 17.6 °F 0.9 °F -2.2 °F 42% 30.20 in 10.0 mi SSE 20.7 mph - N/A   Overcast
8:15 PM 17.6 °F 1.7 °F -2.2 °F 42% 30.20 in 10.0 mi SSE 18.4 mph - N/A   Overcast
8:35 PM 17.6 °F 3.7 °F -0.4 °F 45% 30.21 in 10.0 mi SSE 13.8 mph - N/A   Overcast
8:55 PM 17.6 °F 5.0 °F -0.4 °F 45% 30.21 in 10.0 mi SSE 11.5 mph 19.6 mph N/A   Overcast
9:15 PM 17.6 °F 3.2 °F -0.4 °F 45% 30.19 in 10.0 mi SSE 15.0 mph - N/A   Overcast
9:35 PM 17.6 °F 3.2 °F -0.4 °F 45% 30.20 in 10.0 mi South 15.0 mph - N/A   Overcast
9:55 PM 17.6 °F 3.7 °F -0.4 °F 45% 30.20 in 10.0 mi South 13.8 mph 20.7 mph N/A   Overcast
10:15 PM 17.6 °F 3.7 °F 1.4 °F 49% 30.19 in 10.0 mi South 13.8 mph - N/A   Overcast
10:35 PM 17.6 °F 3.7 °F 1.4 °F 49% 30.19 in 10.0 mi South 13.8 mph 19.6 mph N/A   Overcast
10:55 PM 17.6 °F 4.3 °F 1.4 °F 49% 30.19 in 10.0 mi South 12.7 mph - N/A   Overcast
11:15 PM 17.6 °F 3.7 °F 1.4 °F 49% 30.18 in 10.0 mi South 13.8 mph - N/A   Overcast
11:35 PM 19.4 °F 7.9 °F 3.2 °F 49% 30.18 in 10.0 mi SSW 10.4 mph - N/A   Overcast
11:55 PM 17.6 °F 5.7 °F 3.2 °F 53% 30.17 in 10.0 mi SSW 10.4 mph - N/A   Mostly Cloudy